createdAt,value
2019-05-03T00:02:32.335Z,6.90
2019-05-03T00:05:15.460Z,6.40
2019-05-03T00:07:44.061Z,6.93
2019-05-03T00:10:13.096Z,6.30
2019-05-03T00:12:42.147Z,6.70
2019-05-03T00:15:33.380Z,6.43
2019-05-03T00:18:02.362Z,5.57
2019-05-03T00:20:32.641Z,5.90
2019-05-03T00:23:03.106Z,5.07
2019-05-03T00:25:32.607Z,5.30
2019-05-03T00:28:01.966Z,5.63
2019-05-03T00:30:32.052Z,5.57
2019-05-03T00:33:02.725Z,4.97
2019-05-03T00:35:49.709Z,4.87
2019-05-03T00:38:18.137Z,5.33
2019-05-03T00:40:46.634Z,5.50
2019-05-03T00:43:15.179Z,5.40
2019-05-03T00:45:43.608Z,5.40
2019-05-03T00:48:12.435Z,5.77
2019-05-03T00:50:42.564Z,5.87
2019-05-03T00:53:11.692Z,6.00
2019-05-03T00:55:41.961Z,6.40
2019-05-03T00:58:11.816Z,5.90
2019-05-03T01:00:41.771Z,6.77
2019-05-03T01:03:10.176Z,6.90
2019-05-03T01:05:38.713Z,7.10
2019-05-03T01:08:07.162Z,6.03
2019-05-03T01:10:35.641Z,6.93
2019-05-03T01:13:07.032Z,7.17
2019-05-03T01:16:03.606Z,7.23
2019-05-03T01:18:32.463Z,7.30
2019-05-03T01:21:02.253Z,8.03
2019-05-03T01:23:32.595Z,8.20
2019-05-03T01:26:02.462Z,9.10
2019-05-03T01:28:32.331Z,8.23
2019-05-03T01:31:02.549Z,9.20
2019-05-03T01:33:32.158Z,9.50
2019-05-03T01:36:02.517Z,8.80
2019-05-03T01:38:31.932Z,9.83
2019-05-03T01:41:01.748Z,10.40
2019-05-03T01:43:31.696Z,10.00
2019-05-03T01:46:02.501Z,9.87
2019-05-03T01:49:02.186Z,10.53
2019-05-03T01:51:48.633Z,10.70
2019-05-03T01:54:17.120Z,10.60
2019-05-03T01:56:56.783Z,10.60
2019-05-03T01:59:16.981Z,10.87
2019-05-03T02:02:02.262Z,10.20
2019-05-03T02:04:36.144Z,10.20
2019-05-03T02:07:04.856Z,10.17
2019-05-03T02:09:33.298Z,9.87
2019-05-03T02:12:22.060Z,11.10
2019-05-03T02:15:02.375Z,10.80
2019-05-03T02:17:28.753Z,10.93
2019-05-03T02:19:57.219Z,11.23
2019-05-03T02:22:25.761Z,10.97
2019-05-03T02:24:54.337Z,10.60
2019-05-03T02:27:22.798Z,11.53
2019-05-03T02:29:53.176Z,11.13
2019-05-03T02:32:23.207Z,11.37
2019-05-03T02:34:53.491Z,11.47
2019-05-03T02:37:22.551Z,10.87
2019-05-03T02:39:55.611Z,11.20
2019-05-03T02:42:26.510Z,11.23
2019-05-03T02:44:55.354Z,11.93
2019-05-03T02:47:49.919Z,12.07
2019-05-03T02:50:19.911Z,11.10
2019-05-03T02:52:48.373Z,12.17
2019-05-03T02:55:17.681Z,11.63
2019-05-03T02:57:46.801Z,12.60
2019-05-03T03:00:16.440Z,11.23
2019-05-03T03:02:46.293Z,12.73
2019-05-03T03:05:16.720Z,11.93
2019-05-03T03:07:47.938Z,11.20
2019-05-03T03:10:16.650Z,11.77
2019-05-03T03:12:49.743Z,11.47
2019-05-03T03:15:18.141Z,11.40
2019-05-03T03:17:48.156Z,10.50
2019-05-03T03:20:16.720Z,11.60
2019-05-03T03:22:48.728Z,11.20
2019-05-03T03:25:25.829Z,11.00
2019-05-03T03:27:59.052Z,11.80
2019-05-03T03:30:57.831Z,11.37
2019-05-03T03:33:28.182Z,12.37
2019-05-03T03:36:01.344Z,12.87
2019-05-03T03:38:26.826Z,12.17
2019-05-03T03:40:58.842Z,13.57
2019-05-03T03:43:27.544Z,11.97
2019-05-03T03:45:57.954Z,12.63
2019-05-03T03:48:27.517Z,12.00
2019-05-03T03:50:56.321Z,12.53
2019-05-03T03:53:26.449Z,12.60
2019-05-03T03:55:56.511Z,11.60
2019-05-03T03:58:27.143Z,12.63
2019-05-03T04:00:55.554Z,12.77
2019-05-03T04:03:25.986Z,12.63
2019-05-03T04:05:55.563Z,11.87
2019-05-03T04:08:25.268Z,12.70
2019-05-03T04:10:55.825Z,11.90
2019-05-03T04:13:25.543Z,11.60
2019-05-03T04:16:05.595Z,11.33
2019-05-03T04:18:40.258Z,11.27
2019-05-03T04:21:08.652Z,11.67
2019-05-03T04:23:37.712Z,12.13
2019-05-03T04:26:07.174Z,12.00
2019-05-03T04:28:37.332Z,12.60
2019-05-03T04:31:06.344Z,12.77
2019-05-03T04:33:35.851Z,12.33
2019-05-03T04:36:05.386Z,12.33
2019-05-03T04:38:35.423Z,13.03
2019-05-03T04:41:05.824Z,12.80
2019-05-03T04:43:35.612Z,12.43
2019-05-03T04:46:16.352Z,13.10
2019-05-03T04:48:45.120Z,11.90
2019-05-03T04:51:16.547Z,12.07
2019-05-03T04:53:48.080Z,11.00
2019-05-03T04:56:17.066Z,11.73
2019-05-03T04:58:45.942Z,11.40
2019-05-03T05:01:15.775Z,10.40
2019-05-03T05:03:45.671Z,10.77
2019-05-03T05:06:15.387Z,9.73
2019-05-03T05:08:46.173Z,9.83
2019-05-03T05:11:15.811Z,10.80
2019-05-03T05:13:45.738Z,9.67
2019-05-03T05:16:16.097Z,9.47
2019-05-03T05:18:49.695Z,9.77
2019-05-03T05:21:22.190Z,9.57
2019-05-03T05:23:58.431Z,9.43
2019-05-03T05:26:32.247Z,9.63
2019-05-03T05:29:05.314Z,9.60
2019-05-03T05:31:35.642Z,9.33
2019-05-03T05:34:05.499Z,8.20
2019-05-03T05:36:34.783Z,9.27
2019-05-03T05:39:05.250Z,8.70
2019-05-03T05:41:34.753Z,8.67
2019-05-03T05:44:05.271Z,7.77
2019-05-03T05:46:40.728Z,7.60
2019-05-03T05:49:11.835Z,6.83
2019-05-03T05:51:40.274Z,6.70
2019-05-03T05:54:08.701Z,6.60
2019-05-03T05:57:12.376Z,6.03
2019-05-03T05:59:46.722Z,5.80
2019-05-03T06:02:16.771Z,5.13
2019-05-03T06:04:45.284Z,5.70
2019-05-03T06:07:25.914Z,5.30
2019-05-03T06:10:24.790Z,5.93
2019-05-03T06:13:01.066Z,5.77
2019-05-03T06:15:45.293Z,5.13
2019-05-03T06:18:18.911Z,4.83
2019-05-03T06:20:54.713Z,4.50
2019-05-03T06:23:30.358Z,4.60
2019-05-03T06:25:59.525Z,4.90
2019-05-03T06:28:31.375Z,5.10
2019-05-03T06:31:09.373Z,4.87
2019-05-03T06:33:38.073Z,4.90
2019-05-03T06:36:06.567Z,4.43
2019-05-03T06:38:35.023Z,4.27
2019-05-03T06:41:04.707Z,4.60
2019-05-03T06:43:34.831Z,4.10
2019-05-03T06:46:05.174Z,4.17
2019-05-03T06:48:35.201Z,3.70
2019-05-03T06:51:08.752Z,3.40
2019-05-03T06:53:34.600Z,3.30
2019-05-03T06:56:04.514Z,3.90
2019-05-03T06:58:36.186Z,3.87
2019-05-03T07:01:17.886Z,4.00
2019-05-03T07:04:05.845Z,3.60
2019-05-03T07:06:55.156Z,3.70
2019-05-03T07:09:36.921Z,4.50
2019-05-03T07:12:05.318Z,3.27
2019-05-03T07:14:34.913Z,3.50
2019-05-03T07:17:05.605Z,3.27
2019-05-03T07:19:35.382Z,3.00
2019-05-03T07:22:05.061Z,3.03
2019-05-03T07:24:38.799Z,3.40
2019-05-03T07:27:05.408Z,2.97
2019-05-03T07:29:34.031Z,2.80
2019-05-03T07:32:02.407Z,3.50
2019-05-03T07:34:30.906Z,3.03
2019-05-03T07:37:00.463Z,2.90
2019-05-03T07:39:28.913Z,3.20
2019-05-03T07:41:57.526Z,2.90
2019-05-03T07:44:26.010Z,2.97
2019-05-03T07:46:55.484Z,3.03
2019-05-03T07:49:24.975Z,2.50
2019-05-03T07:51:55.310Z,2.90
2019-05-03T07:54:24.855Z,2.50
2019-05-03T07:57:01.339Z,2.70
2019-05-03T07:59:29.734Z,2.60
2019-05-03T08:01:59.213Z,2.37
2019-05-03T08:04:27.754Z,2.27
2019-05-03T08:06:56.256Z,1.97
2019-05-03T08:09:24.738Z,1.87
2019-05-03T08:11:54.733Z,2.20
2019-05-03T08:14:25.256Z,2.40
2019-05-03T08:16:54.834Z,2.77
2019-05-03T08:19:26.712Z,2.57
2019-05-03T08:21:56.486Z,2.17
2019-05-03T08:24:25.367Z,2.20
2019-05-03T08:26:55.757Z,1.93
2019-05-03T08:29:24.898Z,1.73
2019-05-03T08:32:11.293Z,1.60
2019-05-03T08:35:04.970Z,1.60
2019-05-03T08:37:54.679Z,1.60
2019-05-03T08:40:24.933Z,1.50
2019-05-03T08:42:54.965Z,1.70
2019-05-03T08:45:25.475Z,1.40
2019-05-03T08:47:55.377Z,1.70
2019-05-03T08:50:25.692Z,1.80
2019-05-03T08:52:55.742Z,1.83
2019-05-03T08:55:25.042Z,1.67
2019-05-03T08:57:55.124Z,1.50
2019-05-03T09:00:25.796Z,1.40
2019-05-03T09:02:54.879Z,1.50
2019-05-03T09:05:25.092Z,1.43
2019-05-03T09:07:54.918Z,1.60
2019-05-03T09:10:48.963Z,1.20
2019-05-03T09:13:20.892Z,1.23
2019-05-03T09:15:49.863Z,1.43
2019-05-03T09:18:18.298Z,1.37
2019-05-03T09:20:47.451Z,1.60
2019-05-03T09:23:15.858Z,1.20
2019-05-03T09:25:45.843Z,1.30
2019-05-03T09:28:15.043Z,1.20
2019-05-03T09:30:44.771Z,1.53
2019-05-03T09:33:15.151Z,1.30
2019-05-03T09:35:45.696Z,1.40
2019-05-03T09:38:15.052Z,1.63
2019-05-03T09:40:45.439Z,1.40
2019-05-03T09:43:15.064Z,1.30
2019-05-03T09:45:45.158Z,1.33
2019-05-03T09:48:15.099Z,1.30
2019-05-03T09:50:45.214Z,1.13
2019-05-03T09:53:16.642Z,1.20
2019-05-03T09:55:45.059Z,1.30
2019-05-03T09:58:15.335Z,1.10
2019-05-03T10:00:44.650Z,1.10
2019-05-03T10:03:13.231Z,1.40
2019-05-03T10:05:41.731Z,1.30
2019-05-03T10:08:10.342Z,1.20
2019-05-03T10:10:57.051Z,1.40
2019-05-03T10:13:27.246Z,1.27
2019-05-03T10:15:55.921Z,1.47
2019-05-03T10:18:25.481Z,1.40
2019-05-03T10:20:56.232Z,1.20
2019-05-03T10:23:40.093Z,1.20
2019-05-03T10:26:09.106Z,1.40
2019-05-03T10:28:37.751Z,1.43
2019-05-03T10:31:07.839Z,1.55
2019-05-03T10:33:46.662Z,1.40
2019-05-03T10:36:15.530Z,1.30
2019-05-03T10:38:45.952Z,1.20
2019-05-03T10:41:14.955Z,1.17
2019-05-03T10:43:45.105Z,1.20
2019-05-03T10:46:15.682Z,1.00
2019-05-03T10:48:45.141Z,1.33
2019-05-03T10:51:15.672Z,1.27
2019-05-03T10:53:46.706Z,1.20
2019-05-03T10:56:22.754Z,1.07
2019-05-03T10:58:54.798Z,1.17
2019-05-03T11:01:31.214Z,1.20
2019-05-03T11:03:59.916Z,1.30
2019-05-03T11:06:28.334Z,1.42
2019-05-03T11:08:56.731Z,1.10
2019-05-03T11:11:25.874Z,1.20
2019-05-03T11:13:54.566Z,1.00
2019-05-03T11:16:23.007Z,0.97
2019-05-03T11:18:51.561Z,1.10
2019-05-03T11:21:28.134Z,1.20
2019-05-03T11:23:50.212Z,1.10
2019-05-03T11:26:19.537Z,1.20
2019-05-03T11:28:48.266Z,1.10
2019-05-03T11:31:37.561Z,1.37
2019-05-03T11:34:08.591Z,1.20
2019-05-03T11:36:42.938Z,1.03
2019-05-03T11:39:11.423Z,1.10
2019-05-03T11:41:45.073Z,1.50
2019-05-03T11:44:31.469Z,1.02
2019-05-03T11:47:00.071Z,1.10
2019-05-03T11:49:28.539Z,1.00
2019-05-03T11:51:57.014Z,1.10
2019-05-03T11:54:25.918Z,1.00
2019-05-03T11:56:55.588Z,1.00
2019-05-03T11:59:25.391Z,0.90
2019-05-03T12:02:16.728Z,0.97
2019-05-03T12:04:45.883Z,1.20
2019-05-03T12:07:18.518Z,0.90
2019-05-03T12:09:46.968Z,1.03
2019-05-03T12:12:29.488Z,1.00
2019-05-03T12:14:57.759Z,1.10
2019-05-03T12:17:29.676Z,1.10
2019-05-03T12:19:59.534Z,1.00
2019-05-03T12:22:29.368Z,1.27
2019-05-03T12:24:58.705Z,1.00
2019-05-03T12:27:27.794Z,1.10
2019-05-03T12:29:59.362Z,1.30
2019-05-03T12:32:27.991Z,1.00
2019-05-03T12:34:56.573Z,0.98
2019-05-03T12:37:25.066Z,1.17
2019-05-03T12:39:55.625Z,1.17
2019-05-03T12:42:25.569Z,1.00
2019-05-03T12:44:55.143Z,1.10
2019-05-03T12:47:25.170Z,1.17
2019-05-03T12:49:55.791Z,1.10
2019-05-03T12:52:26.774Z,1.10
2019-05-03T12:54:55.194Z,1.00
2019-05-03T12:57:24.869Z,1.00
2019-05-03T13:00:18.765Z,1.00
2019-05-03T13:02:55.106Z,0.97
2019-05-03T13:05:24.899Z,0.90
2019-05-03T13:08:25.024Z,1.00
2019-05-03T13:10:55.649Z,0.90
2019-05-03T13:13:24.967Z,1.10
2019-05-03T13:15:55.011Z,1.00
2019-05-03T13:18:25.203Z,1.00
2019-05-03T13:20:55.797Z,0.90
2019-05-03T13:23:25.302Z,1.20
2019-05-03T13:25:54.066Z,0.90
2019-05-03T13:28:22.950Z,1.17
2019-05-03T13:30:51.426Z,0.97
2019-05-03T13:33:20.831Z,0.83
2019-05-03T13:35:49.794Z,0.93
2019-05-03T13:38:18.338Z,1.00
2019-05-03T13:40:46.836Z,0.93
2019-05-03T13:43:18.231Z,0.93
2019-05-03T13:45:46.761Z,1.20
2019-05-03T13:48:20.683Z,1.27
2019-05-03T13:50:46.064Z,1.05
2019-05-03T13:53:16.130Z,1.12
2019-05-03T13:55:44.799Z,1.10
2019-05-03T13:58:14.755Z,1.20
2019-05-03T14:00:45.350Z,0.90
2019-05-03T14:03:15.282Z,1.50
2019-05-03T14:05:44.608Z,1.00
2019-05-03T14:08:15.575Z,1.10
2019-05-03T14:10:45.533Z,0.88
2019-05-03T14:13:13.881Z,1.10
2019-05-03T14:15:42.483Z,1.20
2019-05-03T14:18:10.948Z,0.97
2019-05-03T14:20:58.861Z,1.12
2019-05-03T14:23:27.324Z,1.10
2019-05-03T14:25:55.858Z,1.05
2019-05-03T14:28:25.209Z,1.00
2019-05-03T14:30:54.833Z,0.95
2019-05-03T14:33:24.876Z,1.10
2019-05-03T14:35:54.713Z,1.00
2019-05-03T14:38:25.312Z,0.93
2019-05-03T14:40:55.095Z,1.00
2019-05-03T14:43:24.941Z,1.00
2019-05-03T14:45:55.079Z,0.90
2019-05-03T14:48:24.906Z,0.90
2019-05-03T14:50:54.973Z,1.00
2019-05-03T14:53:25.494Z,1.25
2019-05-03T14:56:09.421Z,1.07
2019-05-03T14:59:09.461Z,1.15
2019-05-03T15:01:50.304Z,0.90
2019-05-03T15:04:18.796Z,0.93
2019-05-03T15:06:47.291Z,1.10
2019-05-03T15:09:18.862Z,1.10
2019-05-03T15:11:46.074Z,6.40
2019-05-03T15:14:14.994Z,1.10
2019-05-03T15:16:45.052Z,5.73
2019-05-03T15:19:14.805Z,1.80
2019-05-03T15:21:45.277Z,1.87
2019-05-03T15:24:14.550Z,1.93
2019-05-03T15:26:44.783Z,1.47
2019-05-03T15:29:15.412Z,1.30
2019-05-03T15:31:44.750Z,1.30
2019-05-03T15:34:15.105Z,1.00
2019-05-03T15:36:45.052Z,1.40
2019-05-03T15:39:15.271Z,1.33
2019-05-03T15:41:44.941Z,1.30
2019-05-03T15:44:35.838Z,1.07
2019-05-03T15:47:10.526Z,1.10
2019-05-03T15:49:39.933Z,1.00
2019-05-03T15:52:08.328Z,1.20
2019-05-03T15:54:37.082Z,0.77
2019-05-03T15:57:06.810Z,1.20
2019-05-03T15:59:35.350Z,1.10
2019-05-03T16:02:04.629Z,1.03
2019-05-03T16:04:33.399Z,1.10
2019-05-03T16:07:04.821Z,1.33
2019-05-03T16:09:35.147Z,1.13
2019-05-03T16:12:05.132Z,1.10
2019-05-03T16:14:35.037Z,3.03
2019-05-03T16:17:04.480Z,2.30
2019-05-03T16:19:35.335Z,1.20
2019-05-03T16:22:04.880Z,1.27
2019-05-03T16:24:35.413Z,1.40
2019-05-03T16:27:21.073Z,2.57
2019-05-03T16:29:49.613Z,2.17
2019-05-03T16:32:18.121Z,1.80
2019-05-03T16:34:46.741Z,1.60
2019-05-03T16:37:15.214Z,1.40
2019-05-03T16:39:45.430Z,1.30
2019-05-03T16:42:15.393Z,1.50
2019-05-03T16:44:44.400Z,1.27
2019-05-03T16:47:15.528Z,1.10
2019-05-03T16:49:44.661Z,1.10
2019-05-03T16:52:14.678Z,1.23
2019-05-03T16:54:45.256Z,1.10
2019-05-03T16:57:15.251Z,1.10
2019-05-03T16:59:44.456Z,1.30
2019-05-03T17:02:30.783Z,1.40
2019-05-03T17:05:07.500Z,1.47
2019-05-03T17:07:55.518Z,1.50
2019-05-03T17:10:45.701Z,1.30
2019-05-03T17:13:14.794Z,1.23
2019-05-03T17:15:43.526Z,1.33
2019-05-03T17:18:14.711Z,1.27
2019-05-03T17:20:43.100Z,1.40
2019-05-03T17:23:11.668Z,1.40
2019-05-03T17:25:40.376Z,1.50
2019-05-03T17:28:09.938Z,1.83
2019-05-03T17:30:38.391Z,1.30
2019-05-03T17:33:07.031Z,1.70
2019-05-03T17:35:35.490Z,1.80
2019-05-03T17:38:07.282Z,2.63
2019-05-03T17:40:48.078Z,2.57
2019-05-03T17:43:29.436Z,2.47
2019-05-03T17:45:58.778Z,1.90
2019-05-03T17:48:27.312Z,2.00
2019-05-03T17:50:55.743Z,2.10
2019-05-03T17:53:46.514Z,2.00
2019-05-03T17:56:31.876Z,1.83
2019-05-03T17:59:06.529Z,1.93
2019-05-03T18:01:55.382Z,2.00
2019-05-03T18:04:31.581Z,1.80
2019-05-03T18:07:16.303Z,1.60
2019-05-03T18:09:44.951Z,1.70
2019-05-03T18:12:15.055Z,1.43
2019-05-03T18:14:45.038Z,1.60
2019-05-03T18:17:14.788Z,2.10
2019-05-03T18:19:47.837Z,1.90
2019-05-03T18:22:16.451Z,1.77
2019-05-03T18:24:45.570Z,1.70
2019-05-03T18:27:15.064Z,2.00
2019-05-03T18:29:44.943Z,1.67
2019-05-03T18:32:14.737Z,1.70
2019-05-03T18:34:45.378Z,1.70
2019-05-03T18:37:15.288Z,2.10
2019-05-03T18:39:45.233Z,1.60
2019-05-03T18:42:21.835Z,1.60
2019-05-03T18:44:55.261Z,1.60
2019-05-03T18:47:25.178Z,2.40
2019-05-03T18:49:54.997Z,2.33
2019-05-03T18:52:23.731Z,2.10
2019-05-03T18:54:52.211Z,1.80
2019-05-03T18:57:22.450Z,2.07
2019-05-03T18:59:51.014Z,2.20
2019-05-03T19:02:20.593Z,2.00
2019-05-03T19:04:51.145Z,1.97
2019-05-03T19:07:56.801Z,8.97
2019-05-03T19:10:47.445Z,1.83
2019-05-03T19:13:22.363Z,2.43
2019-05-03T19:15:51.955Z,2.23
2019-05-03T19:18:31.446Z,2.20
2019-05-03T19:21:00.530Z,2.20
2019-05-03T19:23:31.713Z,3.83
2019-05-03T19:26:19.123Z,3.40
2019-05-03T19:28:47.554Z,3.07
2019-05-03T19:31:17.031Z,3.37
2019-05-03T19:33:46.345Z,3.80
2019-05-03T19:36:14.811Z,3.07
2019-05-03T19:39:01.569Z,3.60
2019-05-03T19:41:31.806Z,2.83
2019-05-03T19:44:01.849Z,2.17
2019-05-03T19:46:30.318Z,2.50
2019-05-03T19:48:58.774Z,2.60
2019-05-03T19:51:27.298Z,3.00
2019-05-03T19:53:58.018Z,3.10
2019-05-03T19:56:26.453Z,2.80
2019-05-03T19:58:59.583Z,3.00
2019-05-03T20:01:50.411Z,2.70
2019-05-03T20:04:36.330Z,2.47
2019-05-03T20:07:25.347Z,2.80
2019-05-03T20:09:54.363Z,2.43
2019-05-03T20:12:24.622Z,2.30
2019-05-03T20:14:54.619Z,2.30
2019-05-03T20:17:23.181Z,2.83
2019-05-03T20:19:51.957Z,3.00
2019-05-03T20:22:20.924Z,2.63
2019-05-03T20:24:49.454Z,2.67
2019-05-03T20:27:17.996Z,2.97
2019-05-03T20:29:48.761Z,3.30
2019-05-03T20:32:17.191Z,3.30
2019-05-03T20:34:45.762Z,3.40
2019-05-03T20:37:15.934Z,3.20
2019-05-03T20:39:46.875Z,3.70
2019-05-03T20:42:35.733Z,3.07
2019-05-03T20:45:06.986Z,3.10
2019-05-03T20:47:42.951Z,2.67
2019-05-03T20:50:16.741Z,3.47
2019-05-03T20:52:46.874Z,2.90
2019-05-03T20:55:16.062Z,2.97
2019-05-03T20:57:46.019Z,2.90
2019-05-03T21:00:18.128Z,2.40
2019-05-03T21:02:53.877Z,2.80
2019-05-03T21:05:27.796Z,2.63
2019-05-03T21:07:50.252Z,2.70
2019-05-03T21:10:20.106Z,2.40
2019-05-03T21:12:48.673Z,3.03
2019-05-03T21:15:26.365Z,2.63
2019-05-03T21:18:15.187Z,2.70
2019-05-03T21:21:11.241Z,2.60
2019-05-03T21:23:44.897Z,2.43
2019-05-03T21:26:16.492Z,2.50
2019-05-03T21:28:44.962Z,2.50
2019-05-03T21:31:15.508Z,2.60
2019-05-03T21:33:44.534Z,3.20
2019-05-03T21:36:15.126Z,3.20
2019-05-03T21:38:44.900Z,3.70
2019-05-03T21:41:15.464Z,2.70
2019-05-03T21:43:45.109Z,2.77
2019-05-03T21:46:22.403Z,3.10
2019-05-03T21:49:01.058Z,2.97
2019-05-03T21:51:29.684Z,2.90
2019-05-03T21:53:58.208Z,3.10
2019-05-03T21:56:26.633Z,2.90
2019-05-03T21:58:55.408Z,3.10
2019-05-03T22:01:25.715Z,3.40
2019-05-03T22:03:54.251Z,3.10
2019-05-03T22:06:24.521Z,3.10
2019-05-03T22:08:53.039Z,3.33
2019-05-03T22:11:21.560Z,3.07
2019-05-03T22:13:54.271Z,3.10
2019-05-03T22:16:34.999Z,3.07
2019-05-03T22:19:03.758Z,3.37
2019-05-03T22:21:40.839Z,3.23
2019-05-03T22:24:32.794Z,2.90
2019-05-03T22:27:04.893Z,2.97
2019-05-03T22:29:35.616Z,2.83
2019-05-03T22:32:05.309Z,3.20
2019-05-03T22:34:34.879Z,3.00
2019-05-03T22:37:03.659Z,3.30
2019-05-03T22:39:33.148Z,3.03
2019-05-03T22:42:01.593Z,3.03
2019-05-03T22:44:30.068Z,3.30
2019-05-03T22:46:58.501Z,4.23
2019-05-03T22:49:26.938Z,3.37
2019-05-03T22:51:56.516Z,2.90
2019-05-03T22:54:25.042Z,3.20
2019-05-03T22:56:55.570Z,3.30
2019-05-03T22:59:25.240Z,3.00
2019-05-03T23:01:54.615Z,3.03
2019-05-03T23:04:25.071Z,3.30
2019-05-03T23:06:55.538Z,3.20
2019-05-03T23:09:24.884Z,3.10
2019-05-03T23:11:55.159Z,3.40
2019-05-03T23:14:25.452Z,3.50
2019-05-03T23:16:57.155Z,3.50
2019-05-03T23:19:25.706Z,3.40
2019-05-03T23:21:59.782Z,3.17
2019-05-03T23:24:29.511Z,3.20
2019-05-03T23:26:57.950Z,3.00
2019-05-03T23:29:26.381Z,3.30
2019-05-03T23:31:55.970Z,3.43
2019-05-03T23:34:24.796Z,3.07
2019-05-03T23:36:54.770Z,3.50
2019-05-03T23:39:24.915Z,3.30
2019-05-03T23:41:55.570Z,3.23
2019-05-03T23:44:24.479Z,3.10
2019-05-03T23:47:11.433Z,3.20
2019-05-03T23:49:40.683Z,3.40
2019-05-03T23:52:28.566Z,2.97
2019-05-03T23:54:58.456Z,2.80
2019-05-03T23:57:26.894Z,2.90
2019-05-03T23:59:56.893Z,2.80
